Station: EHBK - 23/03/2017 10:25Z (il y a 4 minutes)
EHBK 231025Z AUTO 07011KT 030V090 9999 NSC 10/06 Q1014 NOSIG
Vent du 070º - 11 kt (vent de direction variable de 030º à 090º)
Visibilité > 10 km
Pas de nuages significatifs
Température: +10ºC - Point de rosée: +06ºC - QNH: 1014 hPa
Pas de changement significatif prévu dans les 2 heures qui suivent l'observation